createdAt,value
2018-10-09T00:00:52.807Z,5.80
2018-10-09T00:03:21.100Z,4.30
2018-10-09T00:05:49.425Z,5.13
2018-10-09T00:08:17.765Z,5.57
2018-10-09T00:10:46.087Z,4.20
2018-10-09T00:13:14.430Z,6.63
2018-10-09T00:15:42.767Z,5.77
2018-10-09T00:18:11.111Z,6.10
2018-10-09T00:20:39.435Z,4.10
2018-10-09T00:23:08.043Z,7.87
2018-10-09T00:25:36.364Z,5.17
2018-10-09T00:28:04.719Z,5.63
2018-10-09T00:30:33.030Z,4.63
2018-10-09T00:33:01.380Z,5.67
2018-10-09T00:35:29.707Z,4.83
2018-10-09T00:37:58.051Z,5.93
2018-10-09T00:40:26.386Z,5.40
2018-10-09T00:42:54.757Z,4.87
2018-10-09T00:45:23.213Z,5.03
2018-10-09T00:47:51.611Z,5.13
2018-10-09T00:50:19.987Z,3.90
2018-10-09T00:52:48.323Z,5.93
2018-10-09T00:55:16.660Z,7.30
2018-10-09T00:57:44.999Z,5.43
2018-10-09T01:00:14.069Z,6.07
2018-10-09T01:02:42.590Z,6.23
2018-10-09T01:05:10.945Z,4.70
2018-10-09T01:07:39.288Z,4.97
2018-10-09T01:10:07.643Z,4.80
2018-10-09T01:12:35.971Z,6.07
2018-10-09T01:15:04.411Z,5.83
2018-10-09T01:17:32.783Z,4.67
2018-10-09T01:20:01.136Z,5.70
2018-10-09T01:22:29.467Z,4.20
2018-10-09T01:24:57.830Z,5.07
2018-10-09T01:27:26.150Z,6.10
2018-10-09T01:29:54.502Z,5.27
2018-10-09T01:32:22.823Z,6.73
2018-10-09T01:34:51.166Z,4.57
2018-10-09T01:37:19.514Z,4.30
2018-10-09T01:39:47.859Z,4.57
2018-10-09T01:42:16.241Z,5.30
2018-10-09T01:44:44.595Z,6.13
2018-10-09T01:47:12.926Z,6.00
2018-10-09T01:49:41.306Z,5.30
2018-10-09T01:52:09.635Z,6.60
2018-10-09T01:54:37.979Z,5.47
2018-10-09T01:57:06.313Z,7.17
2018-10-09T01:59:34.656Z,7.47
2018-10-09T02:02:02.984Z,5.47
2018-10-09T02:04:31.427Z,4.83
2018-10-09T02:06:59.752Z,5.97
2018-10-09T02:09:28.103Z,5.30
2018-10-09T02:11:56.433Z,4.60
2018-10-09T02:14:25.220Z,5.50
2018-10-09T02:16:53.567Z,7.07
2018-10-09T02:19:21.927Z,5.40
2018-10-09T02:21:50.250Z,5.70
2018-10-09T02:24:18.584Z,5.43
2018-10-09T02:26:46.925Z,4.80
2018-10-09T02:29:15.274Z,6.07
2018-10-09T02:31:43.620Z,6.10
2018-10-09T02:34:11.954Z,6.83
2018-10-09T02:36:40.301Z,7.67
2018-10-09T02:39:09.950Z,6.83
2018-10-09T02:41:38.307Z,5.53
2018-10-09T02:44:06.875Z,6.13
2018-10-09T02:46:35.214Z,4.97
2018-10-09T02:49:03.551Z,7.97
2018-10-09T02:51:31.900Z,7.60
2018-10-09T02:54:00.214Z,9.93
2018-10-09T02:56:28.575Z,5.33
2018-10-09T02:58:56.894Z,4.77
2018-10-09T03:01:25.242Z,4.83
2018-10-09T03:03:53.559Z,4.70
2018-10-09T03:06:21.995Z,5.47
2018-10-09T03:08:50.319Z,6.33
2018-10-09T03:11:18.663Z,6.13
2018-10-09T03:13:46.987Z,6.83
2018-10-09T03:16:15.440Z,6.57
2018-10-09T03:18:43.767Z,4.60
2018-10-09T03:21:12.123Z,6.67
2018-10-09T03:23:40.502Z,4.77
2018-10-09T03:26:09.187Z,6.93
2018-10-09T03:28:37.619Z,6.00
2018-10-09T03:31:06.139Z,6.50
2018-10-09T03:33:34.471Z,7.03
2018-10-09T03:36:02.814Z,5.93
2018-10-09T03:38:31.151Z,6.30
2018-10-09T03:40:59.510Z,7.50
2018-10-09T03:43:27.855Z,7.33
2018-10-09T03:45:56.253Z,6.17
2018-10-09T03:48:24.578Z,10.23
2018-10-09T03:50:52.902Z,5.87
2018-10-09T03:53:21.497Z,5.67
2018-10-09T03:55:49.838Z,6.93
2018-10-09T03:58:18.342Z,5.80
2018-10-09T04:00:46.774Z,6.00
2018-10-09T04:03:15.210Z,6.23
2018-10-09T04:05:43.790Z,6.83
2018-10-09T04:08:12.252Z,8.03
2018-10-09T04:10:40.590Z,11.17
2018-10-09T04:13:08.946Z,9.13
2018-10-09T04:15:37.341Z,7.03
2018-10-09T04:18:05.744Z,11.83
2018-10-09T04:20:34.075Z,14.17
2018-10-09T04:23:02.453Z,13.20
2018-10-09T04:25:30.786Z,15.37
2018-10-09T04:27:59.144Z,12.17
2018-10-09T04:30:27.476Z,13.27
2018-10-09T04:32:55.836Z,16.40
2018-10-09T04:35:24.193Z,15.00
2018-10-09T04:37:53.215Z,16.87
2018-10-09T04:40:21.549Z,16.20
2018-10-09T04:42:49.919Z,17.80
2018-10-09T04:45:18.258Z,15.40
2018-10-09T04:47:46.799Z,14.73
2018-10-09T04:50:15.296Z,15.47
2018-10-09T04:52:43.764Z,16.00
2018-10-09T04:55:12.111Z,17.67
2018-10-09T04:57:40.479Z,16.60
2018-10-09T05:00:09.087Z,18.17
2018-10-09T05:02:37.473Z,18.73
2018-10-09T05:05:05.843Z,16.83
2018-10-09T05:07:34.187Z,16.20
2018-10-09T05:10:02.778Z,14.77
2018-10-09T05:12:31.116Z,17.33
2018-10-09T05:14:59.486Z,16.23
2018-10-09T05:17:27.867Z,15.40
2018-10-09T05:19:56.231Z,15.13
2018-10-09T05:22:24.571Z,12.60
2018-10-09T05:24:52.948Z,14.70
2018-10-09T05:27:21.303Z,14.80
2018-10-09T05:29:49.671Z,12.80
2018-10-09T05:32:18.017Z,15.10
2018-10-09T05:34:46.399Z,13.57
2018-10-09T05:37:14.762Z,17.90
2018-10-09T05:39:43.920Z,15.37
2018-10-09T05:42:12.273Z,14.73
2018-10-09T05:44:41.610Z,17.63
2018-10-09T05:47:11.129Z,22.67
2018-10-09T05:49:39.539Z,21.87
2018-10-09T05:52:08.298Z,23.17
2018-10-09T05:54:37.860Z,23.87
2018-10-09T05:57:06.784Z,24.23
2018-10-09T05:59:35.160Z,21.40
2018-10-09T06:02:06.100Z,21.23
2018-10-09T06:04:34.531Z,19.17
2018-10-09T06:07:02.975Z,21.97
2018-10-09T06:09:31.358Z,20.80
2018-10-09T06:11:59.819Z,20.77
2018-10-09T06:14:28.308Z,20.87
2018-10-09T06:16:56.876Z,23.30
2018-10-09T06:19:25.263Z,22.40
2018-10-09T06:21:53.614Z,21.67
2018-10-09T06:24:22.015Z,21.00
2018-10-09T06:26:50.371Z,21.10
2018-10-09T06:29:18.764Z,20.40
2018-10-09T06:31:47.118Z,21.23
2018-10-09T06:34:15.486Z,18.50
2018-10-09T06:36:43.939Z,18.63
2018-10-09T06:39:12.628Z,17.93
2018-10-09T06:41:42.055Z,20.90
2018-10-09T06:44:10.623Z,19.47
2018-10-09T06:46:39.004Z,15.80
2018-10-09T06:49:07.378Z,16.53
2018-10-09T06:51:35.748Z,14.57
2018-10-09T06:54:04.228Z,14.97
2018-10-09T06:56:32.528Z,16.77
2018-10-09T06:59:00.894Z,13.50
2018-10-09T07:01:29.280Z,16.63
2018-10-09T07:03:57.661Z,16.57
2018-10-09T07:06:26.143Z,18.33
2018-10-09T07:08:54.503Z,15.90
2018-10-09T07:11:23.063Z,16.50
2018-10-09T07:13:51.473Z,18.83
2018-10-09T07:16:19.871Z,15.40
2018-10-09T07:18:48.227Z,16.63
2018-10-09T07:21:16.599Z,15.40
2018-10-09T07:23:44.953Z,14.23
2018-10-09T07:26:13.335Z,14.77
2018-10-09T07:28:41.692Z,16.30
2018-10-09T07:31:10.061Z,18.60
2018-10-09T07:33:38.419Z,18.53
2018-10-09T07:36:06.886Z,23.50
2018-10-09T07:38:35.240Z,22.93
2018-10-09T07:41:04.610Z,21.30
2018-10-09T07:43:32.962Z,21.43
2018-10-09T07:46:01.372Z,19.97
2018-10-09T07:48:29.766Z,23.77
2018-10-09T07:50:58.175Z,22.10
2018-10-09T07:53:26.542Z,20.00
2018-10-09T07:55:54.896Z,22.13
2018-10-09T07:58:23.268Z,28.33
2018-10-09T08:00:51.636Z,25.13
2018-10-09T08:03:20.162Z,25.13
2018-10-09T08:05:48.681Z,24.23
2018-10-09T08:08:17.370Z,25.37
2018-10-09T08:10:45.772Z,26.37
2018-10-09T08:13:14.171Z,24.33
2018-10-09T08:15:42.629Z,27.20
2018-10-09T08:18:10.984Z,25.77
2018-10-09T08:20:39.391Z,22.83
2018-10-09T08:23:07.763Z,26.23
2018-10-09T08:25:36.125Z,21.23
2018-10-09T08:28:04.575Z,22.50
2018-10-09T08:30:32.898Z,24.67
2018-10-09T08:33:01.289Z,20.83
2018-10-09T08:35:29.653Z,22.27
2018-10-09T08:37:58.028Z,23.80
2018-10-09T08:40:26.597Z,22.60
2018-10-09T08:42:54.957Z,21.37
2018-10-09T08:45:23.317Z,24.40
2018-10-09T08:47:51.703Z,21.97
2018-10-09T08:50:20.068Z,21.87
2018-10-09T08:52:48.451Z,23.47
2018-10-09T08:55:16.828Z,22.43
2018-10-09T08:57:45.248Z,23.53
2018-10-09T09:00:13.636Z,24.90
2018-10-09T09:02:42.028Z,21.37
2018-10-09T09:05:10.398Z,22.40
2018-10-09T09:07:39.024Z,70.77
2018-10-09T09:10:07.429Z,21.47
2018-10-09T09:12:35.810Z,24.43
2018-10-09T09:15:04.271Z,25.43
2018-10-09T09:17:32.685Z,29.70
2018-10-09T09:20:01.070Z,24.93
2018-10-09T09:22:29.458Z,20.73
2018-10-09T09:24:57.811Z,26.47
2018-10-09T09:27:26.269Z,21.87
2018-10-09T09:29:54.619Z,23.97
2018-10-09T09:32:23.028Z,24.37
2018-10-09T09:34:51.456Z,23.70
2018-10-09T09:37:19.865Z,22.37
2018-10-09T09:39:48.231Z,20.43
2018-10-09T09:42:16.633Z,26.87
2018-10-09T09:44:45.053Z,23.87
2018-10-09T09:47:13.442Z,21.77
2018-10-09T09:49:41.809Z,21.50
2018-10-09T09:52:10.299Z,21.27
2018-10-09T09:54:38.757Z,19.17
2018-10-09T09:57:07.184Z,21.90
2018-10-09T09:59:35.571Z,20.50
2018-10-09T10:02:03.948Z,22.60
2018-10-09T10:04:32.316Z,20.80
2018-10-09T10:07:00.695Z,20.10
2018-10-09T10:09:29.050Z,19.90
2018-10-09T10:11:57.446Z,19.60
2018-10-09T10:14:25.832Z,18.17
2018-10-09T10:16:54.257Z,22.40
2018-10-09T10:19:22.632Z,22.53
2018-10-09T10:21:51.049Z,20.63
2018-10-09T10:24:19.473Z,24.87
2018-10-09T10:26:47.896Z,23.37
2018-10-09T10:29:16.309Z,19.27
2018-10-09T10:31:44.654Z,18.57
2018-10-09T10:34:13.041Z,21.03
2018-10-09T10:36:41.425Z,17.77
2018-10-09T10:39:11.225Z,18.33
2018-10-09T10:41:39.580Z,17.70
2018-10-09T10:44:08.050Z,17.17
2018-10-09T10:46:37.344Z,21.60
2018-10-09T10:49:08.404Z,19.13
2018-10-09T10:51:37.416Z,17.97
2018-10-09T10:54:05.793Z,19.17
2018-10-09T10:56:34.555Z,20.60
2018-10-09T10:59:03.128Z,17.63
2018-10-09T11:01:31.757Z,20.73
2018-10-09T11:04:00.033Z,18.57
2018-10-09T11:06:28.418Z,17.30
2018-10-09T11:08:56.802Z,22.17
2018-10-09T11:11:25.194Z,18.83
2018-10-09T11:13:53.569Z,22.40
2018-10-09T11:16:23.216Z,21.93
2018-10-09T11:18:52.340Z,21.13
2018-10-09T11:21:20.965Z,18.97
2018-10-09T11:23:49.168Z,22.83
2018-10-09T11:26:17.552Z,17.27
2018-10-09T11:28:46.140Z,19.73
2018-10-09T11:31:15.158Z,19.70
2018-10-09T11:33:43.534Z,18.03
2018-10-09T11:36:11.904Z,19.00
2018-10-09T11:38:40.385Z,23.83
2018-10-09T11:41:08.759Z,20.93
2018-10-09T11:43:37.145Z,17.30
2018-10-09T11:46:05.602Z,18.73
2018-10-09T11:48:34.035Z,21.13
2018-10-09T11:51:02.420Z,20.63
2018-10-09T11:53:30.838Z,17.00
2018-10-09T11:55:59.562Z,16.50
2018-10-09T11:58:28.044Z,18.30
2018-10-09T12:00:58.637Z,20.37
2018-10-09T12:03:27.007Z,17.23
2018-10-09T12:05:55.422Z,20.70
2018-10-09T12:08:23.845Z,21.77
2018-10-09T12:10:52.207Z,20.87
2018-10-09T12:13:20.616Z,19.53
2018-10-09T12:15:49.051Z,13.50
2018-10-09T12:18:17.427Z,15.03
2018-10-09T12:20:45.795Z,13.97
2018-10-09T12:23:14.233Z,17.40
2018-10-09T12:25:42.604Z,18.43
2018-10-09T12:28:11.644Z,16.03
2018-10-09T12:30:40.001Z,20.37
2018-10-09T12:33:08.363Z,17.50
2018-10-09T12:35:36.761Z,16.30
2018-10-09T12:38:05.340Z,16.33
2018-10-09T12:40:33.742Z,15.00
2018-10-09T12:43:02.091Z,19.97
2018-10-09T12:45:30.481Z,17.47
2018-10-09T12:47:58.855Z,17.70
2018-10-09T12:50:27.250Z,17.30
2018-10-09T12:52:55.675Z,15.90
2018-10-09T12:55:24.058Z,18.13
2018-10-09T12:57:52.421Z,18.47
2018-10-09T13:00:20.804Z,16.53
2018-10-09T13:02:49.269Z,20.93
2018-10-09T13:05:17.721Z,18.67
2018-10-09T13:07:46.104Z,17.13
2018-10-09T13:10:14.483Z,17.10
2018-10-09T13:12:42.840Z,15.80
2018-10-09T13:15:11.409Z,16.53
2018-10-09T13:17:40.363Z,16.87
2018-10-09T13:20:08.816Z,14.87
2018-10-09T13:22:37.364Z,16.63
2018-10-09T13:25:05.993Z,16.00
2018-10-09T13:27:34.353Z,14.73
2018-10-09T13:30:02.736Z,16.10
2018-10-09T13:32:31.121Z,15.13
2018-10-09T13:34:59.573Z,17.20
2018-10-09T13:37:27.935Z,13.40
2018-10-09T13:39:56.351Z,16.17
2018-10-09T13:42:24.707Z,14.83
2018-10-09T13:44:53.083Z,15.37
2018-10-09T13:47:21.547Z,16.17
2018-10-09T13:49:49.849Z,14.67
2018-10-09T13:52:18.204Z,13.47
2018-10-09T13:54:46.587Z,18.93
2018-10-09T13:57:15.122Z,15.40
2018-10-09T13:59:43.527Z,13.43
2018-10-09T14:02:11.918Z,13.00
2018-10-09T14:04:40.315Z,15.83
2018-10-09T14:07:08.722Z,12.73
2018-10-09T14:09:37.116Z,13.47
2018-10-09T14:12:05.658Z,12.93
2018-10-09T14:14:34.373Z,15.87
2018-10-09T14:17:02.757Z,15.13
2018-10-09T14:19:31.138Z,13.80
2018-10-09T14:21:59.501Z,11.57
2018-10-09T14:24:27.907Z,15.87
2018-10-09T14:26:56.282Z,12.57
2018-10-09T14:29:24.668Z,12.43
2018-10-09T14:31:53.059Z,14.30
2018-10-09T14:34:21.419Z,14.30
2018-10-09T14:36:49.797Z,10.30
2018-10-09T14:39:18.163Z,13.70
2018-10-09T14:41:46.524Z,11.23
2018-10-09T14:44:14.871Z,16.53
2018-10-09T14:46:43.631Z,15.17
2018-10-09T14:49:11.984Z,13.27
2018-10-09T14:51:40.428Z,13.70
2018-10-09T14:54:08.825Z,11.70
2018-10-09T14:56:37.208Z,14.60
2018-10-09T14:59:05.661Z,11.67
2018-10-09T15:01:34.033Z,14.57
2018-10-09T15:04:02.449Z,11.10
2018-10-09T15:06:30.878Z,11.33
2018-10-09T15:08:59.228Z,13.53
2018-10-09T15:11:27.589Z,11.13
2018-10-09T15:13:55.940Z,11.53
2018-10-09T15:16:24.334Z,11.37
2018-10-09T15:18:52.711Z,11.93
2018-10-09T15:21:21.135Z,10.03
2018-10-09T15:23:49.506Z,11.53
2018-10-09T15:26:17.879Z,11.77
2018-10-09T15:28:46.248Z,14.80
2018-10-09T15:31:14.620Z,11.27
2018-10-09T15:33:42.984Z,10.97
2018-10-09T15:36:11.589Z,11.20
2018-10-09T15:38:39.939Z,11.90
2018-10-09T15:41:08.340Z,14.80
2018-10-09T15:43:36.700Z,11.40
2018-10-09T15:46:05.748Z,10.93
2018-10-09T15:48:34.111Z,13.63
2018-10-09T15:51:02.492Z,11.93
2018-10-09T15:53:30.847Z,12.43
2018-10-09T15:55:59.276Z,10.00
2018-10-09T15:58:27.739Z,8.23
2018-10-09T16:00:56.101Z,10.43
2018-10-09T16:03:24.486Z,10.13
2018-10-09T16:05:52.989Z,7.97
2018-10-09T16:08:21.343Z,10.07
2018-10-09T16:10:49.728Z,12.97
2018-10-09T16:13:18.091Z,10.03
2018-10-09T16:15:46.473Z,11.47
2018-10-09T16:18:14.842Z,10.37
2018-10-09T16:20:43.247Z,9.17
2018-10-09T16:23:11.623Z,10.43
2018-10-09T16:25:40.104Z,9.23
2018-10-09T16:28:09.004Z,9.47
2018-10-09T16:30:37.391Z,12.17
2018-10-09T16:33:05.778Z,8.70
2018-10-09T16:35:34.174Z,6.87
2018-10-09T16:38:02.559Z,10.73
2018-10-09T16:40:30.975Z,9.97
2018-10-09T16:42:59.313Z,10.07
2018-10-09T16:45:27.660Z,11.83
2018-10-09T16:47:56.053Z,10.60
2018-10-09T16:50:24.422Z,8.93
2018-10-09T16:52:52.792Z,7.07
2018-10-09T16:55:21.154Z,8.37
2018-10-09T16:57:49.531Z,9.13
2018-10-09T17:00:17.891Z,11.07
2018-10-09T17:02:46.376Z,10.57
2018-10-09T17:05:14.747Z,9.00
2018-10-09T17:07:43.281Z,11.87
2018-10-09T17:10:11.672Z,12.83
2018-10-09T17:12:40.047Z,12.93
2018-10-09T17:15:08.517Z,11.20
2018-10-09T17:17:36.867Z,9.97
2018-10-09T17:20:05.285Z,10.13
2018-10-09T17:22:33.777Z,8.47
2018-10-09T17:25:02.141Z,9.23
2018-10-09T17:27:30.568Z,11.60
2018-10-09T17:29:58.931Z,11.00
2018-10-09T17:32:27.766Z,10.10
2018-10-09T17:34:56.112Z,10.13
2018-10-09T17:37:24.505Z,11.10
2018-10-09T17:39:52.853Z,10.57
2018-10-09T17:42:21.311Z,9.60
2018-10-09T17:44:49.653Z,11.67
2018-10-09T17:47:18.022Z,8.53
2018-10-09T17:49:46.464Z,13.57
2018-10-09T17:52:14.847Z,11.27
2018-10-09T17:54:43.237Z,9.17
2018-10-09T17:57:11.650Z,9.60
2018-10-09T17:59:40.026Z,10.73
2018-10-09T18:02:08.428Z,11.83
2018-10-09T18:04:36.812Z,12.30
2018-10-09T18:07:05.229Z,8.97
2018-10-09T18:09:33.788Z,12.33
2018-10-09T18:12:02.214Z,9.93
2018-10-09T18:14:30.620Z,12.07
2018-10-09T18:16:59.027Z,11.23
2018-10-09T18:19:27.398Z,10.60
2018-10-09T18:21:55.817Z,8.80
2018-10-09T18:24:24.172Z,11.03
2018-10-09T18:26:52.559Z,11.70
2018-10-09T18:29:20.920Z,11.70
2018-10-09T18:31:49.289Z,8.90
2018-10-09T18:34:17.706Z,8.67
2018-10-09T18:36:46.102Z,9.13
2018-10-09T18:39:15.817Z,9.93
2018-10-09T18:41:45.108Z,10.87
2018-10-09T18:44:13.796Z,10.40
2018-10-09T18:46:42.163Z,10.47
2018-10-09T18:49:10.592Z,10.43
2018-10-09T18:51:38.969Z,9.67
2018-10-09T18:54:07.663Z,12.60
2018-10-09T18:56:36.068Z,13.07
2018-10-09T18:59:04.453Z,10.60
2018-10-09T19:01:32.846Z,8.60
2018-10-09T19:04:01.212Z,8.17
2018-10-09T19:06:29.573Z,8.67
2018-10-09T19:08:57.947Z,9.63
2018-10-09T19:11:27.107Z,9.17
2018-10-09T19:13:56.869Z,8.67
2018-10-09T19:16:25.700Z,9.87
2018-10-09T19:18:54.068Z,9.63
2018-10-09T19:21:22.436Z,11.17
2018-10-09T19:23:50.839Z,8.57
2018-10-09T19:26:19.175Z,8.73
2018-10-09T19:28:47.535Z,8.10
2018-10-09T19:31:15.908Z,7.83
2018-10-09T19:33:44.287Z,8.63
2018-10-09T19:36:12.651Z,8.10
2018-10-09T19:38:41.089Z,7.80
2018-10-09T19:41:10.188Z,7.43
2018-10-09T19:43:39.451Z,7.53
2018-10-09T19:46:08.825Z,6.80
2018-10-09T19:48:37.240Z,9.40
2018-10-09T19:51:05.645Z,8.97
2018-10-09T19:53:35.101Z,10.70
2018-10-09T19:56:04.356Z,9.27
2018-10-09T19:58:33.618Z,10.47
2018-10-09T20:01:02.717Z,9.23
2018-10-09T20:03:32.168Z,10.47
2018-10-09T20:06:00.972Z,8.87
2018-10-09T20:08:29.815Z,9.63
2018-10-09T20:10:58.180Z,7.20
2018-10-09T20:13:27.410Z,7.87
2018-10-09T20:15:55.868Z,9.93
2018-10-09T20:18:24.239Z,9.17
2018-10-09T20:20:53.296Z,12.67
2018-10-09T20:23:22.452Z,10.37
2018-10-09T20:25:50.822Z,10.67
2018-10-09T20:28:19.178Z,11.00
2018-10-09T20:30:47.571Z,9.03
2018-10-09T20:33:15.948Z,9.97
2018-10-09T20:35:44.321Z,9.10
2018-10-09T20:38:12.747Z,9.83
2018-10-09T20:40:41.117Z,11.87
2018-10-09T20:43:09.461Z,12.40
2018-10-09T20:45:37.940Z,12.53
2018-10-09T20:48:06.475Z,15.07
2018-10-09T20:50:34.835Z,12.53
2018-10-09T20:53:03.175Z,10.83
2018-10-09T20:55:31.531Z,9.47
2018-10-09T20:57:59.873Z,9.80
2018-10-09T21:00:28.227Z,9.53
2018-10-09T21:02:56.568Z,12.43
2018-10-09T21:05:24.976Z,10.27
2018-10-09T21:07:53.367Z,10.63
2018-10-09T21:10:21.754Z,11.17
2018-10-09T21:12:50.104Z,11.00
2018-10-09T21:15:18.489Z,11.20
2018-10-09T21:17:46.999Z,11.90
2018-10-09T21:20:15.276Z,10.83
2018-10-09T21:22:43.652Z,10.37
2018-10-09T21:25:12.235Z,11.77
2018-10-09T21:27:40.575Z,10.43
2018-10-09T21:30:08.936Z,10.37
2018-10-09T21:32:37.368Z,12.13
2018-10-09T21:35:05.758Z,11.17
2018-10-09T21:37:34.111Z,9.63
2018-10-09T21:40:02.539Z,11.40
2018-10-09T21:42:30.896Z,11.03
2018-10-09T21:44:59.263Z,8.73
2018-10-09T21:47:27.752Z,8.47
2018-10-09T21:49:56.214Z,8.87
2018-10-09T21:52:24.567Z,10.00
2018-10-09T21:54:52.923Z,8.27
2018-10-09T21:57:21.267Z,9.73
2018-10-09T21:59:49.662Z,8.83
2018-10-09T22:02:18.008Z,9.80
2018-10-09T22:04:46.364Z,8.67
2018-10-09T22:07:17.944Z,8.07
2018-10-09T22:09:46.704Z,7.73
2018-10-09T22:12:15.089Z,9.00
2018-10-09T22:14:43.455Z,9.60
2018-10-09T22:17:11.836Z,7.93
2018-10-09T22:19:40.261Z,10.07
2018-10-09T22:22:08.619Z,8.53
2018-10-09T22:24:37.079Z,9.97
2018-10-09T22:27:05.488Z,8.90
2018-10-09T22:29:33.846Z,9.33
2018-10-09T22:32:02.215Z,8.33
2018-10-09T22:34:30.606Z,9.47
2018-10-09T22:36:58.982Z,10.70
2018-10-09T22:39:27.320Z,8.87
2018-10-09T22:41:55.690Z,10.47
2018-10-09T22:44:24.047Z,7.73
2018-10-09T22:46:52.428Z,9.20
2018-10-09T22:49:20.952Z,8.30
2018-10-09T22:51:49.314Z,10.13
2018-10-09T22:54:17.652Z,11.50
2018-10-09T22:56:46.023Z,10.77
2018-10-09T22:59:14.364Z,9.60
2018-10-09T23:01:42.728Z,8.03
2018-10-09T23:04:11.083Z,11.17
2018-10-09T23:06:39.440Z,7.80
2018-10-09T23:09:09.770Z,7.63
2018-10-09T23:11:38.455Z,9.77
2018-10-09T23:14:06.976Z,8.83
2018-10-09T23:16:35.719Z,6.70
2018-10-09T23:19:04.136Z,7.77
2018-10-09T23:21:32.532Z,11.47
2018-10-09T23:24:00.869Z,9.50
2018-10-09T23:26:29.236Z,9.37
2018-10-09T23:28:57.583Z,8.23
2018-10-09T23:31:25.939Z,8.57
2018-10-09T23:33:54.556Z,8.00
2018-10-09T23:36:24.326Z,9.97
2018-10-09T23:38:52.680Z,7.93
2018-10-09T23:41:21.043Z,7.97
2018-10-09T23:43:49.392Z,9.97
2018-10-09T23:46:17.753Z,11.33
2018-10-09T23:48:46.131Z,10.23
2018-10-09T23:51:14.508Z,8.47
2018-10-09T23:53:42.871Z,8.43
2018-10-09T23:56:11.239Z,7.50
2018-10-09T23:58:39.605Z,8.03
